Flight Track Log - Related Links

Times and Time Zones

All times are in EDT time to prevent confusion due to time zone crossing. See the QXE2086 flight status page for this flight to view local times or setup timezone preferences in your user account.

Time Position Orientation Groundspeed Altitude Reporting Facility
EDT Latitude Longitude Course Direction KTS MPH feet Rate Location/Type
Tue 11:36:00 PM 47.2344 -123.0779 254° West  Level FlightAware Approximate
Tue 11:37:00 PM 47.2051 -123.1894 249° West  Level FlightAware Approximate
Tue 11:38:00 PM 47.1754 -123.3007 249° West  Level FlightAware Approximate
Tue 11:39:00 PM 47.1323 -123.3994 158° South  Level FlightAware Approximate
Tue 11:40:00 PM 47.0571 -123.3542 158° South  Level FlightAware Approximate
Tue 11:41:00 PM 46.9817 -123.3100 158° South  Level FlightAware Approximate
Tue 11:42:00 PM 46.9062 -123.2660 158° South  Level FlightAware Approximate
Tue 11:43:00 PM 46.8308 -123.2218 158° South  Level FlightAware Approximate
Tue 11:44:00 PM 46.7826 -123.1285 127° Southeast  Level FlightAware Approximate
Tue 11:45:00 PM 46.7689 -123.0136 161° South  Level Estimated
Tue 11:46:00 PM 46.7550 -122.8986 162° South  Level Estimated
Tue 11:47:00 PM 46.6804 -122.8755 168° South  Level FlightAware Approximate
Tue 11:48:00 PM 46.6059 -122.8524 168° South  Level FlightAware Approximate
Tue 11:49:00 PM 46.5313 -122.8293 168° South  Level FlightAware Approximate
Tue 11:50:00 PM 46.4568 -122.8063 168° South  Level FlightAware Approximate
Tue 11:51:00 PM 46.3822 -122.7834 168° South  Level FlightAware Approximate
Tue 11:52:00 PM 46.3076 -122.7606 168° South  Level FlightAware Approximate
Tue 11:53:00 PM 46.2331 -122.7378 168° South  Level FlightAware Approximate
Tue 11:54:00 PM 46.1555 -122.7141 168° South  Level FlightAware Approximate
Tue 11:55:00 PM 46.0775 -122.6904 168° South  Level FlightAware Approximate
Tue 11:56:00 PM 45.9994 -122.6668 168° South  Level FlightAware Approximate
Tue 11:57:00 PM 45.9214 -122.6432 168° South  Level FlightAware Approximate
Tue 11:58:00 PM 45.8433 -122.6197 168° South  Level FlightAware Approximate
Tue 11:59:00 PM 45.7656 -122.5941 167° South  Level FlightAware Approximate
Wed 12:00:00 AM 45.7335 -122.5166 90° East  Level FlightAware Approximate
Wed 12:01:00 AM 45.7338 -122.4023 90° East  Level FlightAware Approximate
Wed 12:02:00 AM 45.7339 -122.2881 90° East  Level FlightAware Approximate
Wed 12:03:00 AM 45.7339 -122.1738 90° East  Level FlightAware Approximate
Wed 12:04:00 AM 45.7338 -122.0596 90° East  Level FlightAware Approximate
Wed 12:05:00 AM 45.7336 -121.9454 90° East  Level FlightAware Approximate
Wed 12:06:00 AM 45.7497 -121.8291 79° East  Level FlightAware Approximate
Wed 12:07:00 AM 45.7658 -121.7128 79° East  Level FlightAware Approximate
Wed 12:08:00 AM 45.7817 -121.5964 79° East  Level FlightAware Approximate
Wed 12:09:00 AM 45.7975 -121.4800 79° East  Level FlightAware Approximate
Wed 12:10:00 AM 45.8132 -121.3634 79° East  Level FlightAware Approximate
Wed 12:11:00 AM 45.8287 -121.2469 79° East  Level FlightAware Approximate
Wed 12:12:00 AM 45.8442 -121.1302 79° East  Level FlightAware Approximate
Wed 12:13:00 AM 45.8595 -121.0135 79° East  Level FlightAware Approximate
Wed 12:14:00 AM 45.8747 -120.8968 79° East  Level FlightAware Approximate
Wed 12:15:00 AM 45.8899 -120.7790 79° East  Level FlightAware Approximate
Wed 12:16:00 AM 45.9035 -120.6608 83° East  Level FlightAware Approximate
Wed 12:17:00 AM 45.9139 -120.5419 83° East  Level FlightAware Approximate
Wed 12:18:00 AM 45.9242 -120.4230 83° East  Level FlightAware Approximate
Wed 12:19:00 AM 45.9358 -120.3045 74° East  Level FlightAware Approximate
Wed 12:20:00 AM 45.9531 -120.1876 84° East  Level FlightAware Approximate
Wed 12:21:00 AM 45.9611 -120.0683 84° East  Level FlightAware Approximate
Wed 12:22:00 AM 45.9695 -119.9489 83° East  Level FlightAware Approximate
Wed 12:23:00 AM 45.9794 -119.8298 83° East  Level FlightAware Approximate
Wed 12:24:00 AM 45.9892 -119.7107 83° East  Level FlightAware Approximate
Wed 12:25:00 AM 45.9988 -119.5915 83° East  Level FlightAware Approximate
Wed 12:26:00 AM 46.0084 -119.4722 83° East  Level FlightAware Approximate
Wed 12:27:00 AM 46.0167 -119.3528 90° East  Level FlightAware Approximate
Wed 12:28:00 AM 46.0251 -119.2334 84° East  Level FlightAware Approximate
Wed 12:29:00 AM 46.0335 -119.1139 86° East  Level FlightAware Approximate
Wed 12:30:00 AM 46.0399 -118.9942 86° East  Level FlightAware Approximate
Wed 12:31:00 AM 46.0462 -118.8744 86° East  Level FlightAware Approximate
Wed 12:32:00 AM 46.0541 -118.7549 82° East  Level FlightAware Approximate
Wed 12:33:00 AM 46.0649 -118.6357 83° East  Level FlightAware Approximate
Wed 12:34:00 AM 46.0667 -118.5157 90° East  Level FlightAware Approximate
Wed 12:35:00 AM 46.0726 -118.3922 78° East  Level FlightAware Approximate
Wed 12:36:00 AM 46.0833 -118.2833 North  Level FlightAware Approximate
Wed 12:37:00 AM 46.0948 -118.2890 North  Level Estimated
Wed 12:38:00 AM 46.0948 -118.2890 North  Level Estimated
Wed 12:39:00 AM 46.0948 -118.2890 North  Level Estimated
Wed 12:40:00 AM 46.0948 -118.2890 North  Level Estimated
Wed 12:41:00 AM 46.0948 -118.2890 North  Level Estimated

Login

Don't have an account? Register now (free) for customized features, flight alerts, and more!